sensor_id;sensor_type;location;lat;lon;timestamp;P1;durP1;ratioP1;P2;durP2;ratioP2
11121;SDS011;5615;49.304;10.576;2023-11-22T00:02:11;8.10;;;5.97;;
11121;SDS011;5615;49.304;10.576;2023-11-22T00:04:37;8.93;;;5.87;;
11121;SDS011;5615;49.304;10.576;2023-11-22T00:07:04;7.40;;;5.80;;
11121;SDS011;5615;49.304;10.576;2023-11-22T00:09:31;6.73;;;5.97;;
11121;SDS011;5615;49.304;10.576;2023-11-22T00:11:59;6.60;;;5.60;;
11121;SDS011;5615;49.304;10.576;2023-11-22T00:14:27;7.50;;;5.60;;
11121;SDS011;5615;49.304;10.576;2023-11-22T00:16:54;6.50;;;5.50;;
11121;SDS011;5615;49.304;10.576;2023-11-22T00:19:20;8.07;;;6.23;;
11121;SDS011;5615;49.304;10.576;2023-11-22T00:21:48;8.20;;;5.57;;
11121;SDS011;5615;49.304;10.576;2023-11-22T00:24:15;7.50;;;5.83;;
11121;SDS011;5615;49.304;10.576;2023-11-22T00:26:43;6.27;;;5.60;;
11121;SDS011;5615;49.304;10.576;2023-11-22T00:29:12;10.77;;;5.40;;
11121;SDS011;5615;49.304;10.576;2023-11-22T00:31:38;6.13;;;5.03;;
11121;SDS011;5615;49.304;10.576;2023-11-22T00:34:05;7.30;;;5.40;;
11121;SDS011;5615;49.304;10.576;2023-11-22T00:36:32;7.03;;;5.30;;
11121;SDS011;5615;49.304;10.576;2023-11-22T00:38:59;7.33;;;5.53;;
11121;SDS011;5615;49.304;10.576;2023-11-22T00:41:29;5.87;;;5.13;;
11121;SDS011;5615;49.304;10.576;2023-11-22T00:43:56;5.90;;;5.30;;
11121;SDS011;5615;49.304;10.576;2023-11-22T00:46:24;6.80;;;5.07;;
11121;SDS011;5615;49.304;10.576;2023-11-22T00:48:51;6.00;;;5.40;;
11121;SDS011;5615;49.304;10.576;2023-11-22T00:51:17;6.13;;;5.30;;
11121;SDS011;5615;49.304;10.576;2023-11-22T00:53:44;7.73;;;5.63;;
11121;SDS011;5615;49.304;10.576;2023-11-22T00:56:11;6.97;;;5.43;;
11121;SDS011;5615;49.304;10.576;2023-11-22T00:58:38;7.17;;;5.50;;
11121;SDS011;5615;49.304;10.576;2023-11-22T01:01:04;9.53;;;6.00;;
11121;SDS011;5615;49.304;10.576;2023-11-22T01:03:32;7.63;;;6.10;;
11121;SDS011;5615;49.304;10.576;2023-11-22T01:06:00;6.90;;;5.57;;
11121;SDS011;5615;49.304;10.576;2023-11-22T01:08:26;6.83;;;5.93;;
11121;SDS011;5615;49.304;10.576;2023-11-22T01:10:53;9.47;;;6.40;;
11121;SDS011;5615;49.304;10.576;2023-11-22T01:13:22;8.23;;;5.70;;
11121;SDS011;5615;49.304;10.576;2023-11-22T01:15:48;7.57;;;5.97;;
11121;SDS011;5615;49.304;10.576;2023-11-22T01:18:15;7.80;;;6.53;;
11121;SDS011;5615;49.304;10.576;2023-11-22T01:20:43;8.57;;;6.20;;
11121;SDS011;5615;49.304;10.576;2023-11-22T01:23:10;6.47;;;5.57;;
11121;SDS011;5615;49.304;10.576;2023-11-22T01:25:36;8.07;;;6.40;;
11121;SDS011;5615;49.304;10.576;2023-11-22T01:28:03;9.37;;;5.90;;
11121;SDS011;5615;49.304;10.576;2023-11-22T01:30:31;7.70;;;6.07;;
11121;SDS011;5615;49.304;10.576;2023-11-22T01:32:58;7.50;;;6.10;;
11121;SDS011;5615;49.304;10.576;2023-11-22T01:35:25;8.27;;;5.73;;
11121;SDS011;5615;49.304;10.576;2023-11-22T01:37:53;7.27;;;5.80;;
11121;SDS011;5615;49.304;10.576;2023-11-22T01:40:21;7.23;;;6.00;;
11121;SDS011;5615;49.304;10.576;2023-11-22T01:42:48;7.23;;;6.07;;
11121;SDS011;5615;49.304;10.576;2023-11-22T01:45:15;6.93;;;5.50;;
11121;SDS011;5615;49.304;10.576;2023-11-22T01:47:43;7.23;;;5.90;;
11121;SDS011;5615;49.304;10.576;2023-11-22T01:50:10;8.73;;;5.57;;
11121;SDS011;5615;49.304;10.576;2023-11-22T01:52:39;7.23;;;6.20;;
11121;SDS011;5615;49.304;10.576;2023-11-22T01:55:09;6.53;;;5.20;;
11121;SDS011;5615;49.304;10.576;2023-11-22T01:57:36;8.03;;;5.67;;
11121;SDS011;5615;49.304;10.576;2023-11-22T02:00:03;6.53;;;5.70;;
11121;SDS011;5615;49.304;10.576;2023-11-22T02:02:32;6.83;;;5.60;;
11121;SDS011;5615;49.304;10.576;2023-11-22T02:04:59;7.80;;;5.50;;
11121;SDS011;5615;49.304;10.576;2023-11-22T02:07:26;7.13;;;5.97;;
11121;SDS011;5615;49.304;10.576;2023-11-22T02:09:53;7.33;;;6.37;;
11121;SDS011;5615;49.304;10.576;2023-11-22T02:12:23;7.27;;;6.10;;
11121;SDS011;5615;49.304;10.576;2023-11-22T02:14:50;8.07;;;6.20;;
11121;SDS011;5615;49.304;10.576;2023-11-22T02:17:17;7.93;;;6.20;;
11121;SDS011;5615;49.304;10.576;2023-11-22T02:19:43;8.33;;;6.37;;
11121;SDS011;5615;49.304;10.576;2023-11-22T02:22:10;11.23;;;6.50;;
11121;SDS011;5615;49.304;10.576;2023-11-22T02:24:38;7.03;;;6.07;;
11121;SDS011;5615;49.304;10.576;2023-11-22T02:27:05;9.07;;;6.43;;
11121;SDS011;5615;49.304;10.576;2023-11-22T02:29:31;7.90;;;6.33;;
11121;SDS011;5615;49.304;10.576;2023-11-22T02:31:58;8.03;;;6.20;;
11121;SDS011;5615;49.304;10.576;2023-11-22T02:34:25;7.43;;;6.20;;
11121;SDS011;5615;49.304;10.576;2023-11-22T02:36:52;7.67;;;5.93;;
11121;SDS011;5615;49.304;10.576;2023-11-22T02:39:18;8.37;;;6.50;;
11121;SDS011;5615;49.304;10.576;2023-11-22T02:41:47;7.83;;;5.97;;
11121;SDS011;5615;49.304;10.576;2023-11-22T02:44:14;7.63;;;6.37;;
11121;SDS011;5615;49.304;10.576;2023-11-22T02:46:42;8.77;;;6.27;;
11121;SDS011;5615;49.304;10.576;2023-11-22T02:49:08;9.07;;;6.73;;
11121;SDS011;5615;49.304;10.576;2023-11-22T02:51:35;6.93;;;6.00;;
11121;SDS011;5615;49.304;10.576;2023-11-22T02:54:02;7.33;;;5.50;;
11121;SDS011;5615;49.304;10.576;2023-11-22T02:56:29;8.60;;;6.23;;
11121;SDS011;5615;49.304;10.576;2023-11-22T02:58:57;8.90;;;6.33;;
11121;SDS011;5615;49.304;10.576;2023-11-22T03:01:24;8.00;;;6.53;;
11121;SDS011;5615;49.304;10.576;2023-11-22T03:03:51;7.23;;;5.93;;
11121;SDS011;5615;49.304;10.576;2023-11-22T03:06:17;7.97;;;6.50;;
11121;SDS011;5615;49.304;10.576;2023-11-22T03:08:49;7.30;;;5.70;;
11121;SDS011;5615;49.304;10.576;2023-11-22T03:11:16;6.77;;;5.93;;
11121;SDS011;5615;49.304;10.576;2023-11-22T03:13:44;7.83;;;6.10;;
11121;SDS011;5615;49.304;10.576;2023-11-22T03:16:12;8.50;;;6.33;;
11121;SDS011;5615;49.304;10.576;2023-11-22T03:18:39;9.27;;;6.50;;
11121;SDS011;5615;49.304;10.576;2023-11-22T03:21:06;7.07;;;5.73;;
11121;SDS011;5615;49.304;10.576;2023-11-22T03:23:34;7.57;;;6.33;;
11121;SDS011;5615;49.304;10.576;2023-11-22T03:26:01;8.23;;;6.03;;
11121;SDS011;5615;49.304;10.576;2023-11-22T03:28:28;7.50;;;5.97;;
11121;SDS011;5615;49.304;10.576;2023-11-22T03:30:56;7.70;;;5.80;;
11121;SDS011;5615;49.304;10.576;2023-11-22T03:33:25;8.37;;;6.87;;
11121;SDS011;5615;49.304;10.576;2023-11-22T03:35:52;7.57;;;6.30;;
11121;SDS011;5615;49.304;10.576;2023-11-22T03:38:19;6.83;;;5.87;;
11121;SDS011;5615;49.304;10.576;2023-11-22T03:40:45;7.53;;;6.30;;
11121;SDS011;5615;49.304;10.576;2023-11-22T03:43:12;7.77;;;6.17;;
11121;SDS011;5615;49.304;10.576;2023-11-22T03:45:39;9.00;;;6.80;;
11121;SDS011;5615;49.304;10.576;2023-11-22T03:48:06;8.13;;;6.47;;
11121;SDS011;5615;49.304;10.576;2023-11-22T03:50:34;8.97;;;6.63;;
11121;SDS011;5615;49.304;10.576;2023-11-22T03:53:01;7.33;;;5.73;;
11121;SDS011;5615;49.304;10.576;2023-11-22T03:55:27;8.37;;;6.33;;
11121;SDS011;5615;49.304;10.576;2023-11-22T03:57:54;7.47;;;6.10;;
11121;SDS011;5615;49.304;10.576;2023-11-22T04:00:21;7.17;;;5.80;;
11121;SDS011;5615;49.304;10.576;2023-11-22T04:02:49;6.80;;;5.80;;
11121;SDS011;5615;49.304;10.576;2023-11-22T04:05:15;7.13;;;5.73;;
11121;SDS011;5615;49.304;10.576;2023-11-22T04:07:43;8.03;;;5.83;;
11121;SDS011;5615;49.304;10.576;2023-11-22T04:10:10;8.73;;;6.23;;
11121;SDS011;5615;49.304;10.576;2023-11-22T04:12:36;9.07;;;6.23;;
11121;SDS011;5615;49.304;10.576;2023-11-22T04:15:03;8.60;;;6.40;;
11121;SDS011;5615;49.304;10.576;2023-11-22T04:17:33;6.93;;;5.70;;
11121;SDS011;5615;49.304;10.576;2023-11-22T04:20:02;6.97;;;5.90;;
11121;SDS011;5615;49.304;10.576;2023-11-22T04:22:33;8.23;;;6.83;;
11121;SDS011;5615;49.304;10.576;2023-11-22T04:25:01;8.23;;;5.90;;
11121;SDS011;5615;49.304;10.576;2023-11-22T04:27:29;7.83;;;6.27;;
11121;SDS011;5615;49.304;10.576;2023-11-22T04:29:56;9.40;;;6.60;;
11121;SDS011;5615;49.304;10.576;2023-11-22T04:32:22;7.17;;;5.90;;
11121;SDS011;5615;49.304;10.576;2023-11-22T04:34:49;8.13;;;5.87;;
11121;SDS011;5615;49.304;10.576;2023-11-22T04:37:15;7.37;;;6.37;;
11121;SDS011;5615;49.304;10.576;2023-11-22T04:39:42;8.50;;;6.70;;
11121;SDS011;5615;49.304;10.576;2023-11-22T04:42:10;8.87;;;6.53;;
11121;SDS011;5615;49.304;10.576;2023-11-22T04:44:37;7.77;;;6.60;;
11121;SDS011;5615;49.304;10.576;2023-11-22T04:47:03;9.10;;;7.00;;
11121;SDS011;5615;49.304;10.576;2023-11-22T04:49:31;7.83;;;6.17;;
11121;SDS011;5615;49.304;10.576;2023-11-22T04:51:57;8.20;;;6.17;;
11121;SDS011;5615;49.304;10.576;2023-11-22T04:54:24;8.97;;;6.87;;
11121;SDS011;5615;49.304;10.576;2023-11-22T04:56:51;7.77;;;6.17;;
11121;SDS011;5615;49.304;10.576;2023-11-22T04:59:19;10.57;;;6.80;;
11121;SDS011;5615;49.304;10.576;2023-11-22T05:01:45;10.07;;;7.20;;
11121;SDS011;5615;49.304;10.576;2023-11-22T05:04:13;8.07;;;6.30;;
11121;SDS011;5615;49.304;10.576;2023-11-22T05:06:40;7.67;;;6.10;;
11121;SDS011;5615;49.304;10.576;2023-11-22T05:09:08;9.23;;;6.77;;
11121;SDS011;5615;49.304;10.576;2023-11-22T05:11:35;8.40;;;6.20;;
11121;SDS011;5615;49.304;10.576;2023-11-22T05:14:02;8.63;;;6.83;;
11121;SDS011;5615;49.304;10.576;2023-11-22T05:16:30;8.60;;;6.87;;
11121;SDS011;5615;49.304;10.576;2023-11-22T05:18:58;8.20;;;6.50;;
11121;SDS011;5615;49.304;10.576;2023-11-22T05:21:25;9.43;;;6.30;;
11121;SDS011;5615;49.304;10.576;2023-11-22T05:23:51;8.87;;;6.60;;
11121;SDS011;5615;49.304;10.576;2023-11-22T05:26:19;8.97;;;7.03;;
11121;SDS011;5615;49.304;10.576;2023-11-22T05:28:46;8.83;;;6.40;;
11121;SDS011;5615;49.304;10.576;2023-11-22T05:31:13;10.90;;;6.97;;
11121;SDS011;5615;49.304;10.576;2023-11-22T05:33:41;8.80;;;6.90;;
11121;SDS011;5615;49.304;10.576;2023-11-22T05:36:08;8.97;;;6.83;;
11121;SDS011;5615;49.304;10.576;2023-11-22T05:38:36;8.67;;;6.87;;
11121;SDS011;5615;49.304;10.576;2023-11-22T05:41:03;8.17;;;7.10;;
11121;SDS011;5615;49.304;10.576;2023-11-22T05:43:31;11.63;;;7.40;;
11121;SDS011;5615;49.304;10.576;2023-11-22T05:46:01;9.43;;;7.17;;
11121;SDS011;5615;49.304;10.576;2023-11-22T05:48:28;8.27;;;6.97;;
11121;SDS011;5615;49.304;10.576;2023-11-22T05:50:56;10.43;;;7.70;;
11121;SDS011;5615;49.304;10.576;2023-11-22T05:53:23;10.40;;;7.90;;
11121;SDS011;5615;49.304;10.576;2023-11-22T05:55:49;9.43;;;7.27;;
11121;SDS011;5615;49.304;10.576;2023-11-22T05:58:17;11.33;;;8.00;;
11121;SDS011;5615;49.304;10.576;2023-11-22T06:00:44;10.73;;;8.03;;
11121;SDS011;5615;49.304;10.576;2023-11-22T06:03:11;11.07;;;8.00;;
11121;SDS011;5615;49.304;10.576;2023-11-22T06:05:39;9.87;;;8.00;;
11121;SDS011;5615;49.304;10.576;2023-11-22T06:08:07;12.10;;;8.60;;
11121;SDS011;5615;49.304;10.576;2023-11-22T06:10:34;14.10;;;9.23;;
11121;SDS011;5615;49.304;10.576;2023-11-22T06:13:01;11.73;;;9.40;;
11121;SDS011;5615;49.304;10.576;2023-11-22T06:15:27;10.57;;;8.13;;
11121;SDS011;5615;49.304;10.576;2023-11-22T06:17:54;13.23;;;9.50;;
11121;SDS011;5615;49.304;10.576;2023-11-22T06:20:21;13.83;;;9.77;;
11121;SDS011;5615;49.304;10.576;2023-11-22T06:22:49;13.80;;;9.67;;
11121;SDS011;5615;49.304;10.576;2023-11-22T06:25:17;12.60;;;9.63;;
11121;SDS011;5615;49.304;10.576;2023-11-22T06:27:43;11.43;;;9.10;;
11121;SDS011;5615;49.304;10.576;2023-11-22T06:30:10;11.43;;;9.17;;
11121;SDS011;5615;49.304;10.576;2023-11-22T06:32:39;11.20;;;9.00;;
11121;SDS011;5615;49.304;10.576;2023-11-22T06:35:07;13.47;;;9.70;;
11121;SDS011;5615;49.304;10.576;2023-11-22T06:37:35;14.23;;;10.30;;
11121;SDS011;5615;49.304;10.576;2023-11-22T06:40:01;12.13;;;9.20;;
11121;SDS011;5615;49.304;10.576;2023-11-22T06:42:30;13.47;;;9.97;;
11121;SDS011;5615;49.304;10.576;2023-11-22T06:44:58;12.07;;;9.57;;
11121;SDS011;5615;49.304;10.576;2023-11-22T06:47:25;12.00;;;9.17;;
11121;SDS011;5615;49.304;10.576;2023-11-22T06:49:52;13.73;;;9.27;;
11121;SDS011;5615;49.304;10.576;2023-11-22T06:52:19;11.33;;;9.23;;
11121;SDS011;5615;49.304;10.576;2023-11-22T06:54:46;12.83;;;9.93;;
11121;SDS011;5615;49.304;10.576;2023-11-22T06:57:12;11.90;;;8.80;;
11121;SDS011;5615;49.304;10.576;2023-11-22T06:59:40;11.97;;;9.17;;
11121;SDS011;5615;49.304;10.576;2023-11-22T07:02:07;11.70;;;8.60;;
11121;SDS011;5615;49.304;10.576;2023-11-22T07:04:34;10.03;;;8.17;;
11121;SDS011;5615;49.304;10.576;2023-11-22T07:07:02;11.40;;;8.30;;
11121;SDS011;5615;49.304;10.576;2023-11-22T07:09:29;10.47;;;8.10;;
11121;SDS011;5615;49.304;10.576;2023-11-22T07:11:57;11.90;;;8.93;;
11121;SDS011;5615;49.304;10.576;2023-11-22T07:14:24;11.97;;;9.10;;
11121;SDS011;5615;49.304;10.576;2023-11-22T07:16:52;13.73;;;8.97;;
11121;SDS011;5615;49.304;10.576;2023-11-22T07:19:20;17.50;;;11.03;;
11121;SDS011;5615;49.304;10.576;2023-11-22T07:21:47;15.50;;;11.07;;
11121;SDS011;5615;49.304;10.576;2023-11-22T07:24:13;14.00;;;10.47;;
11121;SDS011;5615;49.304;10.576;2023-11-22T07:26:40;11.77;;;8.77;;
11121;SDS011;5615;49.304;10.576;2023-11-22T07:29:08;12.53;;;9.33;;
11121;SDS011;5615;49.304;10.576;2023-11-22T07:31:34;12.03;;;9.50;;
11121;SDS011;5615;49.304;10.576;2023-11-22T07:34:03;13.00;;;8.40;;
11121;SDS011;5615;49.304;10.576;2023-11-22T07:36:31;13.27;;;9.13;;
11121;SDS011;5615;49.304;10.576;2023-11-22T07:38:57;13.90;;;8.73;;
11121;SDS011;5615;49.304;10.576;2023-11-22T07:41:24;9.57;;;7.93;;
11121;SDS011;5615;49.304;10.576;2023-11-22T07:43:51;10.73;;;8.73;;
11121;SDS011;5615;49.304;10.576;2023-11-22T07:46:18;11.37;;;8.50;;
11121;SDS011;5615;49.304;10.576;2023-11-22T07:48:45;10.20;;;8.23;;
11121;SDS011;5615;49.304;10.576;2023-11-22T07:51:15;10.93;;;8.47;;
11121;SDS011;5615;49.304;10.576;2023-11-22T07:53:42;10.77;;;8.20;;
11121;SDS011;5615;49.304;10.576;2023-11-22T07:56:09;10.93;;;7.90;;
11121;SDS011;5615;49.304;10.576;2023-11-22T07:58:36;10.37;;;7.93;;
11121;SDS011;5615;49.304;10.576;2023-11-22T08:01:03;11.87;;;7.97;;
11121;SDS011;5615;49.304;10.576;2023-11-22T08:03:31;10.83;;;8.53;;
11121;SDS011;5615;49.304;10.576;2023-11-22T08:05:59;10.47;;;8.50;;
11121;SDS011;5615;49.304;10.576;2023-11-22T08:08:29;12.77;;;9.87;;
11121;SDS011;5615;49.304;10.576;2023-11-22T08:10:55;13.00;;;9.20;;
11121;SDS011;5615;49.304;10.576;2023-11-22T08:13:22;13.60;;;9.63;;
11121;SDS011;5615;49.304;10.576;2023-11-22T08:15:49;14.80;;;9.60;;
11121;SDS011;5615;49.304;10.576;2023-11-22T08:18:16;14.10;;;9.40;;
11121;SDS011;5615;49.304;10.576;2023-11-22T08:20:43;14.90;;;9.20;;
11121;SDS011;5615;49.304;10.576;2023-11-22T08:23:10;11.90;;;9.10;;
11121;SDS011;5615;49.304;10.576;2023-11-22T08:25:39;13.57;;;9.63;;
11121;SDS011;5615;49.304;10.576;2023-11-22T08:28:05;14.57;;;9.93;;
11121;SDS011;5615;49.304;10.576;2023-11-22T08:30:33;11.80;;;8.97;;
11121;SDS011;5615;49.304;10.576;2023-11-22T08:33:00;12.93;;;10.10;;
11121;SDS011;5615;49.304;10.576;2023-11-22T08:35:27;13.73;;;9.10;;
11121;SDS011;5615;49.304;10.576;2023-11-22T08:37:54;13.43;;;9.23;;
11121;SDS011;5615;49.304;10.576;2023-11-22T08:40:22;12.30;;;9.00;;
11121;SDS011;5615;49.304;10.576;2023-11-22T08:42:52;13.50;;;10.33;;
11121;SDS011;5615;49.304;10.576;2023-11-22T08:45:19;12.67;;;9.93;;
11121;SDS011;5615;49.304;10.576;2023-11-22T08:47:45;14.37;;;10.20;;
11121;SDS011;5615;49.304;10.576;2023-11-22T08:50:12;13.27;;;9.30;;
11121;SDS011;5615;49.304;10.576;2023-11-22T08:52:40;12.37;;;9.23;;
11121;SDS011;5615;49.304;10.576;2023-11-22T08:55:07;13.23;;;9.77;;
11121;SDS011;5615;49.304;10.576;2023-11-22T08:57:35;15.13;;;9.83;;
11121;SDS011;5615;49.304;10.576;2023-11-22T09:00:04;14.87;;;10.00;;
11121;SDS011;5615;49.304;10.576;2023-11-22T09:02:34;14.73;;;9.50;;
11121;SDS011;5615;49.304;10.576;2023-11-22T09:05:01;12.13;;;9.40;;
11121;SDS011;5615;49.304;10.576;2023-11-22T09:07:28;14.80;;;10.87;;
11121;SDS011;5615;49.304;10.576;2023-11-22T09:09:56;14.63;;;10.73;;
11121;SDS011;5615;49.304;10.576;2023-11-22T09:12:23;16.13;;;10.77;;
11121;SDS011;5615;49.304;10.576;2023-11-22T09:14:52;14.40;;;10.80;;
11121;SDS011;5615;49.304;10.576;2023-11-22T09:17:20;12.73;;;10.23;;
11121;SDS011;5615;49.304;10.576;2023-11-22T09:19:46;15.27;;;11.13;;
11121;SDS011;5615;49.304;10.576;2023-11-22T09:22:15;14.70;;;11.13;;
11121;SDS011;5615;49.304;10.576;2023-11-22T09:24:42;18.57;;;11.50;;
11121;SDS011;5615;49.304;10.576;2023-11-22T09:27:10;16.37;;;11.97;;
11121;SDS011;5615;49.304;10.576;2023-11-22T09:29:40;17.47;;;10.97;;
11121;SDS011;5615;49.304;10.576;2023-11-22T09:32:06;14.77;;;11.23;;
11121;SDS011;5615;49.304;10.576;2023-11-22T09:34:37;17.17;;;11.77;;
11121;SDS011;5615;49.304;10.576;2023-11-22T09:37:03;17.93;;;12.57;;
11121;SDS011;5615;49.304;10.576;2023-11-22T09:39:30;21.80;;;11.77;;
11121;SDS011;5615;49.304;10.576;2023-11-22T09:41:57;15.63;;;11.80;;
11121;SDS011;5615;49.304;10.576;2023-11-22T09:44:24;18.03;;;12.87;;
11121;SDS011;5615;49.304;10.576;2023-11-22T09:46:51;15.50;;;11.63;;
11121;SDS011;5615;49.304;10.576;2023-11-22T09:49:20;17.53;;;12.67;;
11121;SDS011;5615;49.304;10.576;2023-11-22T09:51:52;17.70;;;13.17;;
11121;SDS011;5615;49.304;10.576;2023-11-22T09:54:22;16.73;;;11.57;;
11121;SDS011;5615;49.304;10.576;2023-11-22T09:56:54;16.20;;;12.53;;
11121;SDS011;5615;49.304;10.576;2023-11-22T09:59:25;21.27;;;14.13;;
11121;SDS011;5615;49.304;10.576;2023-11-22T10:01:53;19.73;;;13.87;;
11121;SDS011;5615;49.304;10.576;2023-11-22T10:04:19;16.97;;;12.77;;
11121;SDS011;5615;49.304;10.576;2023-11-22T10:06:46;17.20;;;12.77;;
11121;SDS011;5615;49.304;10.576;2023-11-22T10:09:14;16.40;;;12.43;;
11121;SDS011;5615;49.304;10.576;2023-11-22T10:11:42;17.07;;;12.63;;
11121;SDS011;5615;49.304;10.576;2023-11-22T10:14:10;19.40;;;13.93;;
11121;SDS011;5615;49.304;10.576;2023-11-22T10:16:36;21.97;;;15.20;;
11121;SDS011;5615;49.304;10.576;2023-11-22T10:19:03;18.50;;;13.77;;
11121;SDS011;5615;49.304;10.576;2023-11-22T10:21:32;18.30;;;14.17;;
11121;SDS011;5615;49.304;10.576;2023-11-22T10:24:00;24.63;;;15.10;;
11121;SDS011;5615;49.304;10.576;2023-11-22T10:26:29;18.90;;;14.50;;
11121;SDS011;5615;49.304;10.576;2023-11-22T10:28:56;20.37;;;15.13;;
11121;SDS011;5615;49.304;10.576;2023-11-22T10:31:24;20.50;;;15.43;;
11121;SDS011;5615;49.304;10.576;2023-11-22T10:33:51;23.87;;;15.40;;
11121;SDS011;5615;49.304;10.576;2023-11-22T10:36:20;21.73;;;15.40;;
11121;SDS011;5615;49.304;10.576;2023-11-22T10:38:48;18.83;;;14.47;;
11121;SDS011;5615;49.304;10.576;2023-11-22T10:41:15;20.77;;;15.97;;
11121;SDS011;5615;49.304;10.576;2023-11-22T10:43:44;17.50;;;13.90;;
11121;SDS011;5615;49.304;10.576;2023-11-22T10:46:12;20.73;;;15.23;;
11121;SDS011;5615;49.304;10.576;2023-11-22T10:48:39;18.47;;;13.93;;
11121;SDS011;5615;49.304;10.576;2023-11-22T10:51:06;18.07;;;13.73;;
11121;SDS011;5615;49.304;10.576;2023-11-22T10:53:41;18.07;;;13.60;;
11121;SDS011;5615;49.304;10.576;2023-11-22T10:56:14;16.87;;;13.07;;
11121;SDS011;5615;49.304;10.576;2023-11-22T10:58:47;17.27;;;12.87;;
11121;SDS011;5615;49.304;10.576;2023-11-22T11:01:15;15.10;;;12.17;;
11121;SDS011;5615;49.304;10.576;2023-11-22T11:03:44;18.63;;;12.23;;
11121;SDS011;5615;49.304;10.576;2023-11-22T11:06:16;14.73;;;11.70;;
11121;SDS011;5615;49.304;10.576;2023-11-22T11:08:47;15.67;;;12.00;;
11121;SDS011;5615;49.304;10.576;2023-11-22T11:11:15;16.80;;;12.13;;
11121;SDS011;5615;49.304;10.576;2023-11-22T11:13:43;16.73;;;12.20;;
11121;SDS011;5615;49.304;10.576;2023-11-22T11:16:12;15.53;;;12.10;;
11121;SDS011;5615;49.304;10.576;2023-11-22T11:18:39;15.40;;;12.30;;
11121;SDS011;5615;49.304;10.576;2023-11-22T11:21:07;16.30;;;12.23;;
11121;SDS011;5615;49.304;10.576;2023-11-22T11:23:37;13.90;;;11.23;;
11121;SDS011;5615;49.304;10.576;2023-11-22T11:26:09;15.33;;;11.90;;
11121;SDS011;5615;49.304;10.576;2023-11-22T11:28:41;15.87;;;10.97;;
11121;SDS011;5615;49.304;10.576;2023-11-22T11:31:09;15.50;;;12.93;;
11121;SDS011;5615;49.304;10.576;2023-11-22T11:33:53;16.93;;;12.43;;
11121;SDS011;5615;49.304;10.576;2023-11-22T11:36:21;15.67;;;12.70;;
11121;SDS011;5615;49.304;10.576;2023-11-22T11:38:49;14.00;;;11.37;;
11121;SDS011;5615;49.304;10.576;2023-11-22T11:41:16;16.57;;;12.17;;
11121;SDS011;5615;49.304;10.576;2023-11-22T11:43:44;16.47;;;12.50;;
11121;SDS011;5615;49.304;10.576;2023-11-22T11:46:11;14.23;;;11.30;;
11121;SDS011;5615;49.304;10.576;2023-11-22T11:48:43;14.40;;;11.50;;
11121;SDS011;5615;49.304;10.576;2023-11-22T11:51:13;17.13;;;12.03;;
11121;SDS011;5615;49.304;10.576;2023-11-22T11:53:40;15.23;;;11.93;;
11121;SDS011;5615;49.304;10.576;2023-11-22T11:56:07;18.13;;;12.37;;
11121;SDS011;5615;49.304;10.576;2023-11-22T11:58:34;15.20;;;10.90;;
11121;SDS011;5615;49.304;10.576;2023-11-22T12:01:04;15.70;;;11.30;;
11121;SDS011;5615;49.304;10.576;2023-11-22T12:03:31;14.73;;;12.17;;
11121;SDS011;5615;49.304;10.576;2023-11-22T12:05:59;15.50;;;11.63;;
11121;SDS011;5615;49.304;10.576;2023-11-22T12:08:26;16.93;;;11.33;;
11121;SDS011;5615;49.304;10.576;2023-11-22T12:10:55;14.80;;;10.93;;
11121;SDS011;5615;49.304;10.576;2023-11-22T12:13:24;13.73;;;10.73;;
11121;SDS011;5615;49.304;10.576;2023-11-22T12:15:51;15.33;;;11.17;;
11121;SDS011;5615;49.304;10.576;2023-11-22T12:18:19;14.13;;;11.07;;
11121;SDS011;5615;49.304;10.576;2023-11-22T12:20:53;15.83;;;11.63;;
11121;SDS011;5615;49.304;10.576;2023-11-22T12:23:23;13.03;;;10.63;;
11121;SDS011;5615;49.304;10.576;2023-11-22T12:25:54;15.20;;;12.07;;
11121;SDS011;5615;49.304;10.576;2023-11-22T12:28:22;16.87;;;13.60;;
11121;SDS011;5615;49.304;10.576;2023-11-22T12:30:49;16.13;;;11.80;;
11121;SDS011;5615;49.304;10.576;2023-11-22T12:33:17;13.97;;;10.90;;
11121;SDS011;5615;49.304;10.576;2023-11-22T12:35:44;15.27;;;11.10;;
11121;SDS011;5615;49.304;10.576;2023-11-22T12:38:11;14.97;;;12.17;;
11121;SDS011;5615;49.304;10.576;2023-11-22T12:40:44;13.77;;;10.90;;
11121;SDS011;5615;49.304;10.576;2023-11-22T12:43:12;15.37;;;11.37;;
11121;SDS011;5615;49.304;10.576;2023-11-22T12:45:40;14.47;;;11.53;;
11121;SDS011;5615;49.304;10.576;2023-11-22T12:48:20;15.93;;;12.03;;
11121;SDS011;5615;49.304;10.576;2023-11-22T12:50:49;14.67;;;11.33;;
11121;SDS011;5615;49.304;10.576;2023-11-22T12:53:16;14.20;;;11.10;;
11121;SDS011;5615;49.304;10.576;2023-11-22T12:55:45;17.87;;;13.77;;
11121;SDS011;5615;49.304;10.576;2023-11-22T12:58:14;14.17;;;11.00;;
11121;SDS011;5615;49.304;10.576;2023-11-22T13:00:41;15.20;;;11.37;;
11121;SDS011;5615;49.304;10.576;2023-11-22T13:03:09;16.17;;;11.93;;
11121;SDS011;5615;49.304;10.576;2023-11-22T13:05:36;15.77;;;11.03;;
11121;SDS011;5615;49.304;10.576;2023-11-22T13:08:03;15.87;;;11.17;;
11121;SDS011;5615;49.304;10.576;2023-11-22T13:10:30;14.20;;;10.80;;
11121;SDS011;5615;49.304;10.576;2023-11-22T13:12:59;14.90;;;10.87;;
11121;SDS011;5615;49.304;10.576;2023-11-22T13:15:26;15.37;;;10.77;;
11121;SDS011;5615;49.304;10.576;2023-11-22T13:17:53;14.40;;;11.73;;
11121;SDS011;5615;49.304;10.576;2023-11-22T13:20:21;13.47;;;10.83;;
11121;SDS011;5615;49.304;10.576;2023-11-22T13:22:50;15.50;;;11.30;;
11121;SDS011;5615;49.304;10.576;2023-11-22T13:25:17;14.93;;;11.13;;
11121;SDS011;5615;49.304;10.576;2023-11-22T13:27:45;14.57;;;11.00;;
11121;SDS011;5615;49.304;10.576;2023-11-22T13:30:14;14.37;;;11.03;;
11121;SDS011;5615;49.304;10.576;2023-11-22T13:32:42;13.80;;;10.53;;
11121;SDS011;5615;49.304;10.576;2023-11-22T13:35:09;12.77;;;10.37;;
11121;SDS011;5615;49.304;10.576;2023-11-22T13:37:40;13.97;;;10.77;;
11121;SDS011;5615;49.304;10.576;2023-11-22T13:40:08;14.27;;;10.53;;
11121;SDS011;5615;49.304;10.576;2023-11-22T13:42:39;13.00;;;9.90;;
11121;SDS011;5615;49.304;10.576;2023-11-22T13:45:07;12.13;;;9.90;;
11121;SDS011;5615;49.304;10.576;2023-11-22T13:47:35;12.53;;;9.20;;
11121;SDS011;5615;49.304;10.576;2023-11-22T13:50:02;15.30;;;10.47;;
11121;SDS011;5615;49.304;10.576;2023-11-22T13:52:29;14.73;;;10.33;;
11121;SDS011;5615;49.304;10.576;2023-11-22T13:54:57;14.37;;;10.57;;
11121;SDS011;5615;49.304;10.576;2023-11-22T13:57:24;12.87;;;9.70;;
11121;SDS011;5615;49.304;10.576;2023-11-22T13:59:51;12.60;;;9.77;;
11121;SDS011;5615;49.304;10.576;2023-11-22T14:02:17;15.73;;;10.40;;
11121;SDS011;5615;49.304;10.576;2023-11-22T14:04:45;12.53;;;10.13;;
11121;SDS011;5615;49.304;10.576;2023-11-22T14:07:12;14.67;;;10.67;;
11121;SDS011;5615;49.304;10.576;2023-11-22T14:09:38;15.63;;;13.10;;
11121;SDS011;5615;49.304;10.576;2023-11-22T14:12:05;16.30;;;11.10;;
11121;SDS011;5615;49.304;10.576;2023-11-22T14:14:32;11.93;;;9.37;;
11121;SDS011;5615;49.304;10.576;2023-11-22T14:16:58;14.53;;;10.83;;
11121;SDS011;5615;49.304;10.576;2023-11-22T14:19:25;13.63;;;10.53;;
11121;SDS011;5615;49.304;10.576;2023-11-22T14:21:53;12.73;;;9.57;;
11121;SDS011;5615;49.304;10.576;2023-11-22T14:24:19;14.30;;;11.90;;
11121;SDS011;5615;49.304;10.576;2023-11-22T14:26:46;12.00;;;9.53;;
11121;SDS011;5615;49.304;10.576;2023-11-22T14:29:14;14.87;;;9.73;;
11121;SDS011;5615;49.304;10.576;2023-11-22T14:31:41;16.03;;;9.70;;
11121;SDS011;5615;49.304;10.576;2023-11-22T14:34:07;13.37;;;9.33;;
11121;SDS011;5615;49.304;10.576;2023-11-22T14:36:37;12.77;;;10.03;;
11121;SDS011;5615;49.304;10.576;2023-11-22T14:39:05;12.00;;;9.67;;